sensor_id;sensor_type;location;lat;lon;timestamp;pressure;altitude;pressure_sealevel;temperature;humidity
64064;BME280;50314;50.618;10.642;2023-04-23T00:02:12;95918.66;;;21.83;21.18
64064;BME280;50314;50.618;10.642;2023-04-23T00:04:48;95914.91;;;21.77;20.90
64064;BME280;50314;50.618;10.642;2023-04-23T00:07:14;95907.69;;;21.78;20.92
64064;BME280;50314;50.618;10.642;2023-04-23T00:09:42;95911.41;;;21.77;21.25
64064;BME280;50314;50.618;10.642;2023-04-23T00:12:11;95908.09;;;21.75;20.80
64064;BME280;50314;50.618;10.642;2023-04-23T00:14:36;95901.28;;;21.72;20.89
64064;BME280;50314;50.618;10.642;2023-04-23T00:17:02;95905.00;;;21.71;21.24
64064;BME280;50314;50.618;10.642;2023-04-23T00:19:28;95906.00;;;21.70;21.10
64064;BME280;50314;50.618;10.642;2023-04-23T00:21:53;95907.03;;;21.69;21.17
64064;BME280;50314;50.618;10.642;2023-04-23T00:24:19;95901.88;;;21.68;21.03
64064;BME280;50314;50.618;10.642;2023-04-23T00:26:44;95901.88;;;21.68;21.25
64064;BME280;50314;50.618;10.642;2023-04-23T00:29:10;95904.75;;;21.66;21.17
64064;BME280;50314;50.618;10.642;2023-04-23T00:31:35;95902.31;;;21.65;21.11
64064;BME280;50314;50.618;10.642;2023-04-23T00:34:01;95901.44;;;21.64;21.05
64064;BME280;50314;50.618;10.642;2023-04-23T00:36:27;95897.34;;;21.62;21.20
64064;BME280;50314;50.618;10.642;2023-04-23T00:38:52;95895.66;;;21.61;21.21
64064;BME280;50314;50.618;10.642;2023-04-23T00:41:18;95893.00;;;21.61;21.29
64064;BME280;50314;50.618;10.642;2023-04-23T00:43:43;95887.63;;;21.61;21.43
64064;BME280;50314;50.618;10.642;2023-04-23T00:46:10;95893.81;;;21.61;21.21
64064;BME280;50314;50.618;10.642;2023-04-23T00:48:36;95896.72;;;21.59;21.12
64064;BME280;50314;50.618;10.642;2023-04-23T00:51:05;95895.47;;;21.55;21.39
64064;BME280;50314;50.618;10.642;2023-04-23T00:53:31;95892.78;;;21.55;21.17
64064;BME280;50314;50.618;10.642;2023-04-23T00:55:58;95903.69;;;21.54;21.32
64064;BME280;50314;50.618;10.642;2023-04-23T00:58:26;95890.50;;;21.52;21.29
64064;BME280;50314;50.618;10.642;2023-04-23T01:00:52;95893.59;;;21.49;21.47
64064;BME280;50314;50.618;10.642;2023-04-23T01:03:18;95898.31;;;21.47;21.26
64064;BME280;50314;50.618;10.642;2023-04-23T01:05:47;95896.88;;;21.45;21.46
64064;BME280;50314;50.618;10.642;2023-04-23T01:08:16;95899.75;;;21.43;21.43
64064;BME280;50314;50.618;10.642;2023-04-23T01:10:46;95901.81;;;21.41;21.55
64064;BME280;50314;50.618;10.642;2023-04-23T01:13:14;95885.75;;;21.41;21.58
64064;BME280;50314;50.618;10.642;2023-04-23T01:15:41;95898.28;;;21.41;21.15
64064;BME280;50314;50.618;10.642;2023-04-23T01:18:06;95899.31;;;21.40;21.45
64064;BME280;50314;50.618;10.642;2023-04-23T01:20:33;95899.53;;;21.38;21.45
64064;BME280;50314;50.618;10.642;2023-04-23T01:22:59;95889.84;;;21.37;21.39
64064;BME280;50314;50.618;10.642;2023-04-23T01:25:25;95896.22;;;21.36;21.44
64064;BME280;50314;50.618;10.642;2023-04-23T01:27:50;95891.09;;;21.34;21.50
64064;BME280;50314;50.618;10.642;2023-04-23T01:30:16;95895.59;;;21.34;21.64
64064;BME280;50314;50.618;10.642;2023-04-23T01:32:42;95897.66;;;21.32;21.53
64064;BME280;50314;50.618;10.642;2023-04-23T01:35:09;95896.84;;;21.31;21.58
64064;BME280;50314;50.618;10.642;2023-04-23T01:37:36;95894.34;;;21.30;21.63
64064;BME280;50314;50.618;10.642;2023-04-23T01:40:02;95898.88;;;21.29;21.63
64064;BME280;50314;50.618;10.642;2023-04-23T01:42:28;95896.41;;;21.28;21.56
64064;BME280;50314;50.618;10.642;2023-04-23T01:44:53;95906.31;;;21.27;21.60
64064;BME280;50314;50.618;10.642;2023-04-23T01:47:19;95901.78;;;21.28;21.51
64064;BME280;50314;50.618;10.642;2023-04-23T01:49:45;95895.59;;;21.27;21.46
64064;BME280;50314;50.618;10.642;2023-04-23T01:52:10;95894.13;;;21.25;21.67
64064;BME280;50314;50.618;10.642;2023-04-23T01:54:36;95898.03;;;21.22;21.70
64064;BME280;50314;50.618;10.642;2023-04-23T01:57:01;95891.84;;;21.22;21.66
64064;BME280;50314;50.618;10.642;2023-04-23T01:59:27;95893.91;;;21.20;21.65
64064;BME280;50314;50.618;10.642;2023-04-23T02:01:52;95897.41;;;21.20;21.62
64064;BME280;50314;50.618;10.642;2023-04-23T02:04:18;95903.78;;;21.19;21.70
64064;BME280;50314;50.618;10.642;2023-04-23T02:06:46;95897.75;;;21.17;21.67
64064;BME280;50314;50.618;10.642;2023-04-23T02:09:12;95894.25;;;21.17;21.67
64064;BME280;50314;50.618;10.642;2023-04-23T02:11:37;95895.31;;;21.16;21.90
64064;BME280;50314;50.618;10.642;2023-04-23T02:14:04;95899.00;;;21.15;21.44
64064;BME280;50314;50.618;10.642;2023-04-23T02:16:30;95896.50;;;21.13;22.01
64064;BME280;50314;50.618;10.642;2023-04-23T02:18:55;95894.66;;;21.13;21.68
64064;BME280;50314;50.618;10.642;2023-04-23T02:21:24;95894.06;;;21.11;21.94
64064;BME280;50314;50.618;10.642;2023-04-23T02:23:51;95902.09;;;21.11;21.79
64064;BME280;50314;50.618;10.642;2023-04-23T02:26:17;95896.72;;;21.11;21.66
64064;BME280;50314;50.618;10.642;2023-04-23T02:28:43;95896.72;;;21.11;21.77
64064;BME280;50314;50.618;10.642;2023-04-23T02:31:09;95896.72;;;21.11;21.74
64064;BME280;50314;50.618;10.642;2023-04-23T02:33:34;95887.25;;;21.09;21.67
64064;BME280;50314;50.618;10.642;2023-04-23T02:36:00;95893.81;;;21.06;21.69
64064;BME280;50314;50.618;10.642;2023-04-23T02:38:25;95892.97;;;21.06;21.58
64064;BME280;50314;50.618;10.642;2023-04-23T02:40:51;95893.19;;;21.04;21.93
64064;BME280;50314;50.618;10.642;2023-04-23T02:43:16;95893.38;;;21.03;21.76
64064;BME280;50314;50.618;10.642;2023-04-23T02:45:42;95893.59;;;21.01;21.83
64064;BME280;50314;50.618;10.642;2023-04-23T02:48:09;95894.59;;;21.00;21.85
64064;BME280;50314;50.618;10.642;2023-04-23T02:50:35;95892.94;;;20.99;22.03
64064;BME280;50314;50.618;10.642;2023-04-23T02:53:03;95894.59;;;21.00;21.90
64064;BME280;50314;50.618;10.642;2023-04-23T02:55:29;95892.13;;;20.99;21.76
64064;BME280;50314;50.618;10.642;2023-04-23T02:57:56;95895.03;;;20.97;21.84
64064;BME280;50314;50.618;10.642;2023-04-23T03:00:23;95887.19;;;20.96;21.81
64064;BME280;50314;50.618;10.642;2023-04-23T03:02:48;95897.06;;;20.95;21.94
64064;BME280;50314;50.618;10.642;2023-04-23T03:05:14;95895.41;;;20.94;21.86
64064;BME280;50314;50.618;10.642;2023-04-23T03:07:40;95893.75;;;20.93;21.88
64064;BME280;50314;50.618;10.642;2023-04-23T03:10:06;95893.75;;;20.93;22.11
64064;BME280;50314;50.618;10.642;2023-04-23T03:12:32;95891.28;;;20.92;21.89
64064;BME280;50314;50.618;10.642;2023-04-23T03:14:58;95896.63;;;20.92;21.75
64064;BME280;50314;50.618;10.642;2023-04-23T03:17:23;95901.97;;;20.92;21.92
64064;BME280;50314;50.618;10.642;2023-04-23T03:19:48;95904.84;;;20.90;22.00
64064;BME280;50314;50.618;10.642;2023-04-23T03:22:14;95902.38;;;20.88;22.08
64064;BME280;50314;50.618;10.642;2023-04-23T03:24:39;95901.56;;;20.88;21.84
64064;BME280;50314;50.618;10.642;2023-04-23T03:27:05;95907.94;;;20.87;21.91
64064;BME280;50314;50.618;10.642;2023-04-23T03:29:30;95903.59;;;20.86;21.92
64064;BME280;50314;50.618;10.642;2023-04-23T03:31:56;95912.66;;;20.85;21.95
64064;BME280;50314;50.618;10.642;2023-04-23T03:34:21;95907.31;;;20.85;22.00
64064;BME280;50314;50.618;10.642;2023-04-23T03:36:47;95902.97;;;20.84;21.95
64064;BME280;50314;50.618;10.642;2023-04-23T03:39:13;95909.34;;;20.83;21.92
64064;BME280;50314;50.618;10.642;2023-04-23T03:41:39;95913.03;;;20.82;22.05
64064;BME280;50314;50.618;10.642;2023-04-23T03:44:04;95911.19;;;20.82;21.85
64064;BME280;50314;50.618;10.642;2023-04-23T03:46:30;95915.06;;;20.80;22.09
64064;BME280;50314;50.618;10.642;2023-04-23T03:48:55;95912.41;;;20.80;21.97
64064;BME280;50314;50.618;10.642;2023-04-23T03:51:21;95912.63;;;20.78;22.06
64064;BME280;50314;50.618;10.642;2023-04-23T03:53:48;95910.97;;;20.77;21.95
64064;BME280;50314;50.618;10.642;2023-04-23T03:56:13;95910.16;;;20.77;22.08
64064;BME280;50314;50.618;10.642;2023-04-23T03:58:39;95907.66;;;20.75;22.15
64064;BME280;50314;50.618;10.642;2023-04-23T04:01:04;95909.50;;;20.75;22.09
64064;BME280;50314;50.618;10.642;2023-04-23T04:03:29;95909.69;;;20.73;22.03
64064;BME280;50314;50.618;10.642;2023-04-23T04:05:55;95908.88;;;20.73;21.88
64064;BME280;50314;50.618;10.642;2023-04-23T04:08:20;95909.91;;;20.72;22.10
64064;BME280;50314;50.618;10.642;2023-04-23T04:10:46;95910.09;;;20.70;22.22
64064;BME280;50314;50.618;10.642;2023-04-23T04:13:12;95915.47;;;20.70;22.26
64064;BME280;50314;50.618;10.642;2023-04-23T04:15:37;95914.59;;;20.70;22.14
64064;BME280;50314;50.618;10.642;2023-04-23T04:18:03;95914.81;;;20.68;21.93
64064;BME280;50314;50.618;10.642;2023-04-23T04:20:28;95912.31;;;20.67;22.02
64064;BME280;50314;50.618;10.642;2023-04-23T04:22:54;95913.34;;;20.65;22.32
64064;BME280;50314;50.618;10.642;2023-04-23T04:25:19;95916.22;;;20.64;22.17
64064;BME280;50314;50.618;10.642;2023-04-23T04:27:46;95911.06;;;20.62;22.05
64064;BME280;50314;50.618;10.642;2023-04-23T04:30:12;95911.06;;;20.62;22.20
64064;BME280;50314;50.618;10.642;2023-04-23T04:32:38;95920.94;;;20.62;22.04
64064;BME280;50314;50.618;10.642;2023-04-23T04:35:05;95919.09;;;20.62;22.18
64064;BME280;50314;50.618;10.642;2023-04-23T04:37:31;95924.44;;;20.62;21.99
64064;BME280;50314;50.618;10.642;2023-04-23T04:39:56;95920.34;;;20.60;21.97
64064;BME280;50314;50.618;10.642;2023-04-23T04:42:22;95925.81;;;20.58;22.16
64064;BME280;50314;50.618;10.642;2023-04-23T04:44:47;95926.84;;;20.57;22.19
64064;BME280;50314;50.618;10.642;2023-04-23T04:47:13;95926.03;;;20.57;22.26
64064;BME280;50314;50.618;10.642;2023-04-23T04:49:40;95930.53;;;20.56;22.11
64064;BME280;50314;50.618;10.642;2023-04-23T04:52:05;95932.38;;;20.56;22.38
64064;BME280;50314;50.618;10.642;2023-04-23T04:54:31;95930.53;;;20.56;22.19
64064;BME280;50314;50.618;10.642;2023-04-23T04:56:56;95925.19;;;20.56;22.19
64064;BME280;50314;50.618;10.642;2023-04-23T04:59:22;95927.25;;;20.54;22.29
64064;BME280;50314;50.618;10.642;2023-04-23T05:01:47;95921.06;;;20.54;22.22
64064;BME280;50314;50.618;10.642;2023-04-23T05:04:13;95926.44;;;20.54;22.10
64064;BME280;50314;50.618;10.642;2023-04-23T05:06:38;95932.97;;;20.51;22.08
64064;BME280;50314;50.618;10.642;2023-04-23T05:09:03;95934.84;;;20.51;22.18
64064;BME280;50314;50.618;10.642;2023-04-23T05:11:29;95937.50;;;20.51;22.11
64064;BME280;50314;50.618;10.642;2023-04-23T05:13:55;95942.03;;;20.50;22.07
64064;BME280;50314;50.618;10.642;2023-04-23T05:16:21;95942.22;;;20.49;22.32
64064;BME280;50314;50.618;10.642;2023-04-23T05:18:46;95941.38;;;20.48;22.23
64064;BME280;50314;50.618;10.642;2023-04-23T05:21:11;95944.06;;;20.48;22.27
64064;BME280;50314;50.618;10.642;2023-04-23T05:23:37;95948.38;;;20.49;22.33
64064;BME280;50314;50.618;10.642;2023-04-23T05:26:03;95951.06;;;20.49;22.18
64064;BME280;50314;50.618;10.642;2023-04-23T05:28:29;95954.75;;;20.48;22.13
64064;BME280;50314;50.618;10.642;2023-04-23T05:30:55;95948.59;;;20.48;22.47
64064;BME280;50314;50.618;10.642;2023-04-23T05:33:20;95959.28;;;20.48;22.29
64064;BME280;50314;50.618;10.642;2023-04-23T05:35:46;95955.78;;;20.47;22.49
64064;BME280;50314;50.618;10.642;2023-04-23T05:38:11;95960.13;;;20.48;22.32
64064;BME280;50314;50.618;10.642;2023-04-23T05:40:37;95960.13;;;20.48;22.40
64064;BME280;50314;50.618;10.642;2023-04-23T05:43:03;95964.25;;;20.51;22.09
64064;BME280;50314;50.618;10.642;2023-04-23T05:45:28;95961.59;;;20.51;22.20
64064;BME280;50314;50.618;10.642;2023-04-23T05:47:54;95967.94;;;20.50;22.10
64064;BME280;50314;50.618;10.642;2023-04-23T05:50:20;95976.81;;;20.50;22.21
64064;BME280;50314;50.618;10.642;2023-04-23T05:52:45;95979.28;;;20.52;22.33
64064;BME280;50314;50.618;10.642;2023-04-23T05:55:11;95981.13;;;20.51;22.29
64064;BME280;50314;50.618;10.642;2023-04-23T05:57:39;95988.13;;;20.52;21.99
64064;BME280;50314;50.618;10.642;2023-04-23T06:00:06;95988.34;;;20.51;22.18
64064;BME280;50314;50.618;10.642;2023-04-23T06:02:34;95987.69;;;20.49;22.53
64064;BME280;50314;50.618;10.642;2023-04-23T06:04:59;95984.19;;;20.48;22.48
64064;BME280;50314;50.618;10.642;2023-04-23T06:07:25;95980.47;;;20.49;22.45
64064;BME280;50314;50.618;10.642;2023-04-23T06:09:50;95982.16;;;20.50;22.22
64064;BME280;50314;50.618;10.642;2023-04-23T06:12:17;95982.16;;;20.50;22.33
64064;BME280;50314;50.618;10.642;2023-04-23T06:14:42;95986.84;;;20.48;22.34
64064;BME280;50314;50.618;10.642;2023-04-23T06:17:07;95978.63;;;20.50;22.36
64064;BME280;50314;50.618;10.642;2023-04-23T06:19:33;95986.28;;;20.53;22.33
64064;BME280;50314;50.618;10.642;2023-04-23T06:21:58;95988.56;;;20.56;22.20
64064;BME280;50314;50.618;10.642;2023-04-23T06:24:24;95989.22;;;20.58;22.42
64064;BME280;50314;50.618;10.642;2023-04-23T06:26:49;95995.38;;;20.58;22.56
64064;BME280;50314;50.618;10.642;2023-04-23T06:29:15;95993.72;;;20.57;22.29
64064;BME280;50314;50.618;10.642;2023-04-23T06:31:40;96005.72;;;20.61;22.33
64064;BME280;50314;50.618;10.642;2023-04-23T06:34:06;96002.22;;;20.61;22.36
64064;BME280;50314;50.618;10.642;2023-04-23T06:36:31;96001.19;;;20.62;22.67
64064;BME280;50314;50.618;10.642;2023-04-23T06:38:57;95996.66;;;20.62;22.46
64064;BME280;50314;50.618;10.642;2023-04-23T06:41:23;95995.84;;;20.62;22.40
64064;BME280;50314;50.618;10.642;2023-04-23T06:43:48;95992.16;;;20.63;22.36
64064;BME280;50314;50.618;10.642;2023-04-23T06:46:13;95992.16;;;20.63;22.51
64064;BME280;50314;50.618;10.642;2023-04-23T06:48:39;95996.66;;;20.62;22.41
64064;BME280;50314;50.618;10.642;2023-04-23T06:51:05;95993.16;;;20.62;22.44
64064;BME280;50314;50.618;10.642;2023-04-23T06:53:31;96000.00;;;20.64;22.38
64064;BME280;50314;50.618;10.642;2023-04-23T06:55:56;96000.59;;;20.67;22.41
64064;BME280;50314;50.618;10.642;2023-04-23T06:58:22;95994.25;;;20.68;22.42
64064;BME280;50314;50.618;10.642;2023-04-23T07:00:52;95995.25;;;20.67;22.46
64064;BME280;50314;50.618;10.642;2023-04-23T07:03:18;95987.22;;;20.67;22.41
64064;BME280;50314;50.618;10.642;2023-04-23T07:05:43;95995.91;;;20.69;22.33
64064;BME280;50314;50.618;10.642;2023-04-23T07:08:09;95990.38;;;20.70;22.66
64064;BME280;50314;50.618;10.642;2023-04-23T07:10:34;95996.53;;;20.71;22.68
64064;BME280;50314;50.618;10.642;2023-04-23T07:13:00;95991.81;;;20.73;22.67
64064;BME280;50314;50.618;10.642;2023-04-23T07:15:25;95985.47;;;20.74;22.55
64064;BME280;50314;50.618;10.642;2023-04-23T07:17:51;95995.78;;;20.77;22.72
64064;BME280;50314;50.618;10.642;2023-04-23T07:20:16;96000.75;;;20.86;22.55
64064;BME280;50314;50.618;10.642;2023-04-23T07:22:42;96007.22;;;20.99;22.53
64064;BME280;50314;50.618;10.642;2023-04-23T07:25:07;96003.38;;;21.08;22.67
64064;BME280;50314;50.618;10.642;2023-04-23T07:27:33;96004.72;;;21.19;22.67
64064;BME280;50314;50.618;10.642;2023-04-23T07:29:59;96005.19;;;21.29;22.38
64064;BME280;50314;50.618;10.642;2023-04-23T07:32:26;96009.34;;;21.38;22.46
64064;BME280;50314;50.618;10.642;2023-04-23T07:34:53;95996.59;;;21.47;22.54
64064;BME280;50314;50.618;10.642;2023-04-23T07:37:20;95996.25;;;21.56;22.29
64064;BME280;50314;50.618;10.642;2023-04-23T07:39:46;95995.66;;;21.68;22.40
64064;BME280;50314;50.618;10.642;2023-04-23T07:42:12;95996.13;;;21.78;22.23
64064;BME280;50314;50.618;10.642;2023-04-23T07:44:37;95996.59;;;21.88;22.33
64064;BME280;50314;50.618;10.642;2023-04-23T07:47:03;95998.28;;;22.02;22.26
64064;BME280;50314;50.618;10.642;2023-04-23T07:49:28;95992.72;;;22.11;22.17
64064;BME280;50314;50.618;10.642;2023-04-23T07:51:54;96000.38;;;22.20;21.85
64064;BME280;50314;50.618;10.642;2023-04-23T07:54:19;95998.56;;;22.34;22.17
64064;BME280;50314;50.618;10.642;2023-04-23T07:56:45;96001.25;;;22.47;21.72
64064;BME280;50314;50.618;10.642;2023-04-23T07:59:10;96000.44;;;22.54;21.23
64064;BME280;50314;50.618;10.642;2023-04-23T08:01:36;95999.63;;;22.60;20.95
64064;BME280;50314;50.618;10.642;2023-04-23T08:04:01;95996.72;;;22.68;21.28
64064;BME280;50314;50.618;10.642;2023-04-23T08:06:27;95990.31;;;22.75;20.72
64064;BME280;50314;50.618;10.642;2023-04-23T08:08:55;96000.84;;;22.84;20.90
64064;BME280;50314;50.618;10.642;2023-04-23T08:11:21;95994.88;;;22.95;20.70
64064;BME280;50314;50.618;10.642;2023-04-23T08:13:47;95987.84;;;23.01;20.72
64064;BME280;50314;50.618;10.642;2023-04-23T08:16:13;95989.47;;;23.08;20.92
64064;BME280;50314;50.618;10.642;2023-04-23T08:18:38;95984.50;;;23.12;21.07
64064;BME280;50314;50.618;10.642;2023-04-23T08:21:04;95984.09;;;23.15;21.07
64064;BME280;50314;50.618;10.642;2023-04-23T08:23:29;95989.84;;;23.25;21.00
64064;BME280;50314;50.618;10.642;2023-04-23T08:25:55;95974.28;;;23.60;21.08
64064;BME280;50314;50.618;10.642;2023-04-23T08:28:20;95979.84;;;24.04;20.67
64064;BME280;50314;50.618;10.642;2023-04-23T08:30:46;95972.97;;;24.39;20.55
64064;BME280;50314;50.618;10.642;2023-04-23T08:33:11;95963.72;;;24.85;20.24
64064;BME280;50314;50.618;10.642;2023-04-23T08:35:37;95977.16;;;25.11;19.92
64064;BME280;50314;50.618;10.642;2023-04-23T08:38:02;95966.16;;;25.49;19.84
64064;BME280;50314;50.618;10.642;2023-04-23T08:40:30;95968.38;;;25.89;19.26
64064;BME280;50314;50.618;10.642;2023-04-23T08:43:02;95966.13;;;26.04;18.85
64064;BME280;50314;50.618;10.642;2023-04-23T08:45:31;95980.19;;;26.06;18.71
64064;BME280;50314;50.618;10.642;2023-04-23T08:47:59;95988.13;;;26.01;18.83
64064;BME280;50314;50.618;10.642;2023-04-23T08:50:27;95981.41;;;25.92;18.48
64064;BME280;50314;50.618;10.642;2023-04-23T08:52:54;95988.22;;;25.94;19.21
64064;BME280;50314;50.618;10.642;2023-04-23T08:55:21;95976.66;;;26.36;18.92
64064;BME280;50314;50.618;10.642;2023-04-23T08:57:48;95966.16;;;26.69;19.37
64064;BME280;50314;50.618;10.642;2023-04-23T09:00:16;95964.91;;;27.07;18.63
64064;BME280;50314;50.618;10.642;2023-04-23T09:02:45;95962.41;;;27.17;18.85
64064;BME280;50314;50.618;10.642;2023-04-23T09:05:12;95962.78;;;27.09;18.54
64064;BME280;50314;50.618;10.642;2023-04-23T09:07:38;95975.44;;;26.97;18.38
64064;BME280;50314;50.618;10.642;2023-04-23T09:10:05;95969.34;;;26.90;18.82
64064;BME280;50314;50.618;10.642;2023-04-23T09:12:31;95965.44;;;26.98;18.91
64064;BME280;50314;50.618;10.642;2023-04-23T09:14:57;95956.69;;;27.02;19.23
64064;BME280;50314;50.618;10.642;2023-04-23T09:17:27;95958.75;;;27.00;18.68
64064;BME280;50314;50.618;10.642;2023-04-23T09:19:54;95964.06;;;26.95;18.85
64064;BME280;50314;50.618;10.642;2023-04-23T09:22:42;95959.00;;;26.75;19.03
64064;BME280;50314;50.618;10.642;2023-04-23T09:25:10;95975.53;;;26.67;18.86
64064;BME280;50314;50.618;10.642;2023-04-23T09:27:36;95974.47;;;26.56;19.34
64064;BME280;50314;50.618;10.642;2023-04-23T09:30:06;95979.06;;;26.56;18.69
64064;BME280;50314;50.618;10.642;2023-04-23T09:32:34;95972.25;;;26.53;19.15
64064;BME280;50314;50.618;10.642;2023-04-23T09:35:07;95970.53;;;26.40;19.31
64064;BME280;50314;50.618;10.642;2023-04-23T09:37:33;95958.66;;;27.07;19.05
64064;BME280;50314;50.618;10.642;2023-04-23T09:40:00;95961.88;;;27.68;18.47
64064;BME280;50314;50.618;10.642;2023-04-23T09:42:28;95953.31;;;27.87;18.66
64064;BME280;50314;50.618;10.642;2023-04-23T09:44:58;95950.53;;;27.82;18.45
64064;BME280;50314;50.618;10.642;2023-04-23T09:47:24;95954.91;;;27.72;18.48
64064;BME280;50314;50.618;10.642;2023-04-23T09:49:50;95949.56;;;27.60;18.63
64064;BME280;50314;50.618;10.642;2023-04-23T09:52:16;95961.31;;;27.54;18.87
64064;BME280;50314;50.618;10.642;2023-04-23T09:54:42;95958.63;;;27.42;18.62
64064;BME280;50314;50.618;10.642;2023-04-23T09:57:10;95955.72;;;27.32;18.61
64064;BME280;50314;50.618;10.642;2023-04-23T09:59:36;95954.19;;;27.24;18.60
64064;BME280;50314;50.618;10.642;2023-04-23T10:02:04;95959.50;;;27.19;18.57
64064;BME280;50314;50.618;10.642;2023-04-23T10:04:30;95953.13;;;27.13;18.58
64064;BME280;50314;50.618;10.642;2023-04-23T10:06:57;95949.75;;;27.06;18.70
64064;BME280;50314;50.618;10.642;2023-04-23T10:09:24;95941.28;;;27.03;18.76
64064;BME280;50314;50.618;10.642;2023-04-23T10:11:51;95948.19;;;26.99;18.60
64064;BME280;50314;50.618;10.642;2023-04-23T10:14:19;95953.25;;;26.95;18.94
64064;BME280;50314;50.618;10.642;2023-04-23T10:16:46;95951.94;;;26.98;19.51
64064;BME280;50314;50.618;10.642;2023-04-23T10:19:17;95948.91;;;26.94;18.92
64064;BME280;50314;50.618;10.642;2023-04-23T10:21:45;95945.75;;;27.09;19.31
64064;BME280;50314;50.618;10.642;2023-04-23T10:24:16;95947.38;;;27.22;19.04
64064;BME280;50314;50.618;10.642;2023-04-23T10:26:44;95944.56;;;27.28;19.10
64064;BME280;50314;50.618;10.642;2023-04-23T10:29:13;95935.03;;;27.26;19.03
64064;BME280;50314;50.618;10.642;2023-04-23T10:31:41;95942.56;;;27.24;18.85
64064;BME280;50314;50.618;10.642;2023-04-23T10:34:08;95941.38;;;27.20;18.94
64064;BME280;50314;50.618;10.642;2023-04-23T10:36:37;95943.97;;;27.14;19.18
64064;BME280;50314;50.618;10.642;2023-04-23T10:39:03;95944.09;;;27.08;19.05
64064;BME280;50314;50.618;10.642;2023-04-23T10:41:39;95933.28;;;26.96;19.08
64064;BME280;50314;50.618;10.642;2023-04-23T10:44:08;95932.69;;;26.94;18.78
64064;BME280;50314;50.618;10.642;2023-04-23T10:46:35;95939.88;;;26.88;19.03
64064;BME280;50314;50.618;10.642;2023-04-23T10:49:05;95941.28;;;26.79;18.76
64064;BME280;50314;50.618;10.642;2023-04-23T10:51:35;95940.56;;;26.72;18.98
64064;BME280;50314;50.618;10.642;2023-04-23T10:54:02;95928.81;;;26.66;18.97
64064;BME280;50314;50.618;10.642;2023-04-23T10:56:29;95926.84;;;26.62;18.83
64064;BME280;50314;50.618;10.642;2023-04-23T10:58:54;95924.47;;;27.12;19.00
64064;BME280;50314;50.618;10.642;2023-04-23T11:01:24;95918.34;;;27.29;18.72
64064;BME280;50314;50.618;10.642;2023-04-23T11:03:50;95919.72;;;27.43;18.99
64064;BME280;50314;50.618;10.642;2023-04-23T11:09:35;95918.69;;;27.73;16.05
64064;BME280;50314;50.618;10.642;2023-04-23T11:12:02;95913.72;;;28.10;16.01
64064;BME280;50314;50.618;10.642;2023-04-23T11:16:59;95904.22;;;27.96;15.41
64064;BME280;50314;50.618;10.642;2023-04-23T11:19:24;95900.19;;;27.81;15.20
64064;BME280;50314;50.618;10.642;2023-04-23T11:21:56;95898.38;;;27.58;15.35
64064;BME280;50314;50.618;10.642;2023-04-23T11:24:29;95903.22;;;27.45;14.98
64064;BME280;50314;50.618;10.642;2023-04-23T11:26:56;95899.75;;;27.32;15.69
64064;BME280;50314;50.618;10.642;2023-04-23T11:29:24;95898.81;;;27.27;15.21
64064;BME280;50314;50.618;10.642;2023-04-23T11:31:54;95898.03;;;27.14;15.59
64064;BME280;50314;50.618;10.642;2023-04-23T11:34:20;95891.47;;;27.10;15.68
64064;BME280;50314;50.618;10.642;2023-04-23T11:36:47;95888.66;;;27.05;15.60
64064;BME280;50314;50.618;10.642;2023-04-23T11:39:13;95884.31;;;27.04;15.37
64064;BME280;50314;50.618;10.642;2023-04-23T11:41:38;95880.31;;;26.95;15.18
64064;BME280;50314;50.618;10.642;2023-04-23T11:44:04;95877.88;;;26.82;15.33
64064;BME280;50314;50.618;10.642;2023-04-23T11:46:31;95876.22;;;26.69;15.54
64064;BME280;50314;50.618;10.642;2023-04-23T11:48:58;95870.25;;;26.55;15.60
64064;BME280;50314;50.618;10.642;2023-04-23T11:51:27;95870.44;;;26.42;15.26
64064;BME280;50314;50.618;10.642;2023-04-23T11:53:53;95865.63;;;26.32;15.40
64064;BME280;50314;50.618;10.642;2023-04-23T11:56:21;95861.97;;;26.27;15.43
64064;BME280;50314;50.618;10.642;2023-04-23T11:58:58;95856.22;;;26.23;15.58
64064;BME280;50314;50.618;10.642;2023-04-23T12:01:24;95854.47;;;26.29;15.85
64064;BME280;50314;50.618;10.642;2023-04-23T12:03:49;95848.94;;;26.23;15.67
64064;BME280;50314;50.618;10.642;2023-04-23T12:06:16;95848.03;;;26.18;15.47
64064;BME280;50314;50.618;10.642;2023-04-23T12:08:45;95846.00;;;26.13;15.51
64064;BME280;50314;50.618;10.642;2023-04-23T12:11:11;95834.41;;;26.13;15.03
64064;BME280;50314;50.618;10.642;2023-04-23T12:13:38;95838.63;;;26.09;15.32
64064;BME280;50314;50.618;10.642;2023-04-23T12:16:05;95846.34;;;26.05;15.69
64064;BME280;50314;50.618;10.642;2023-04-23T12:18:37;95845.38;;;25.99;15.11
64064;BME280;50314;50.618;10.642;2023-04-23T12:21:05;95841.50;;;25.95;14.92
64064;BME280;50314;50.618;10.642;2023-04-23T12:23:31;95841.84;;;25.87;15.16
64064;BME280;50314;50.618;10.642;2023-04-23T12:26:01;95839.16;;;25.87;15.28
64064;BME280;50314;50.618;10.642;2023-04-23T12:28:31;95837.97;;;25.83;15.49
64064;BME280;50314;50.618;10.642;2023-04-23T12:31:01;95830.81;;;25.77;15.23
64064;BME280;50314;50.618;10.642;2023-04-23T12:33:30;95837.47;;;25.74;15.44
64064;BME280;50314;50.618;10.642;2023-04-23T12:35:56;95844.97;;;25.72;15.47
64064;BME280;50314;50.618;10.642;2023-04-23T12:38:22;95834.41;;;25.71;15.36
64064;BME280;50314;50.618;10.642;2023-04-23T12:40:48;95840.38;;;25.61;15.37
64064;BME280;50314;50.618;10.642;2023-04-23T12:43:14;95835.59;;;25.63;15.39
64064;BME280;50314;50.618;10.642;2023-04-23T12:45:39;95839.75;;;25.59;15.23
64064;BME280;50314;50.618;10.642;2023-04-23T12:48:05;95839.19;;;25.57;15.13
64064;BME280;50314;50.618;10.642;2023-04-23T12:50:31;95835.31;;;25.53;15.54
64064;BME280;50314;50.618;10.642;2023-04-23T12:52:56;95828.47;;;25.50;15.38